Flag for USA

Past Weather in 43°48'14"N, 120°33'15"W, USA — Yesterday and Last 2 Weeks

Currently: 33 °F. Light snow. Fog. (Weather station: Roberts Field Airport, USA). See more current weather

Past Weather in 43°48'14"N, 120°33'15"W — Graph

°F

43°48'14"N, 120°33'15"W Temperature Yesterday

Maximum temperature yesterday: 45 °F (at 1:56 pm)
Minimum temperature yesterday: 28 °F (at 4:56 am)
Average temperature yesterday: 35 °F

High & Low Weather Summary for the Past Weeks

 TemperatureHumidityPressure
High66 °F (Mar 3, 2:56 pm)88% (Feb 26, 8:19 am)30.53 "Hg (Feb 26, 8:19 am)
Low23 °F (Feb 24, 6:56 am)14% (Mar 3, 3:56 pm)29.69 "Hg (Mar 3, 4:56 pm)
Average40 °F55%30.09 "Hg
* Reported Feb 21 10:56 pm — Mar 8 10:56 pm, 43°48'14"N, 120°33'15"W. Weather by CustomWeather, © 2021

Note: Actual official high and low records may vary slightly from our data, if they occured in-between our weather recording intervals... More about our weather records

43°48'14"N, 120°33'15"W Weather History for the Previous 24 Hours

Scroll right to see more
 ConditionsComfort  
Time TempWeatherWind HumidityBarometerVisibility
10:56 pm
Mon, Mar 8
33 °FLight snow. Fog.7 mph85%30.01 "Hg3 mi
10:21 pm34 °FLight snow. Overcast.7 mph82%29.98 "Hg3 mi
10:05 pm34 °FLight snow. Overcast.8 mph82%29.98 "Hg1 mi
9:56 pm33 °FLight snow. Mostly cloudy.7 mph82%30.02 "Hg1 mi
8:56 pm30 °FMostly cloudy.3 mph82%30.00 "Hg10 mi
7:56 pm31 °FClear.No wind79%29.99 "Hg10 mi
6:56 pm31 °FClear.No wind82%29.98 "Hg10 mi
5:56 pm38 °FSunny.6 mph70%29.96 "Hg10 mi
4:56 pm40 °FPassing clouds.10 mph65%29.96 "Hg10 mi
3:56 pm42 °FMore clouds than sun.8 mph53%29.94 "Hg10 mi
2:56 pm43 °FPartly sunny.5 mph49%29.93 "Hg10 mi
1:56 pm45 °FScattered clouds.10 mph48%29.90 "Hg10 mi
12:56 pm42 °FBroken clouds.7 mph53%29.93 "Hg10 mi
11:56 am41 °FBroken clouds.7 mph55%29.94 "Hg10 mi
10:57 am39 °FScattered clouds.7 mph57%29.92 "Hg10 mi
9:56 am37 °FSunny.8 mph62%29.96 "Hg10 mi
8:56 am34 °FPartly sunny.7 mph67%29.98 "Hg10 mi
7:56 am32 °FOvercast.6 mph69%29.98 "Hg10 mi
6:56 am31 °FOvercast.5 mph69%29.98 "Hg10 mi
5:56 am31 °FOvercast.5 mph69%29.98 "Hg10 mi
4:56 am28 °FOvercast.3 mph72%29.99 "Hg10 mi
3:56 am30 °FClear.No wind66%29.99 "Hg10 mi
2:56 am31 °FClear.6 mph64%30.00 "Hg10 mi
1:56 am33 °FPassing clouds.6 mph61%30.02 "Hg10 mi
12:56 am34 °FOvercast.6 mph59%30.04 "Hg10 mi
Weather by CustomWeather, © 2021

See weather overview